Time;durP1;ratioP1;P1;durP2;ratioP2;P2;SDS_P1;SDS_P2;PMS_P1;PMS_P2;Temp;Humidity;BMP_temperature;BMP_pressure;BME280_temperature;BME280_humidity;BME280_pressure;Samples;Min_cycle;Max_cycle;Signal;HPM_P1;HPM_P2
2023/04/23 00:01:43;;;;;;;5.50;3.90;;;;;;;15.44;85.47;99936.14;109461;1254;71247;-69
2023/04/23 00:04:12;;;;;;;5.30;3.90;;;;;;;15.46;85.47;99940.32;109381;1253;72838;-69
2023/04/23 00:06:40;;;;;;;5.80;4.00;;;;;;;15.45;85.44;99938.22;109376;1253;60757;-69
2023/04/23 00:09:08;;;;;;;5.80;4.00;;;;;;;15.44;85.54;99936.59;109443;1253;60373;-69
2023/04/23 00:11:35;;;;;;;5.30;3.90;;;;;;;15.42;85.41;99936.41;109449;1254;73397;-69
2023/04/23 00:14:02;;;;;;;5.50;4.20;;;;;;;15.39;85.44;99932.38;109446;1254;69936;-69
2023/04/23 00:16:29;;;;;;;5.00;4.00;;;;;;;15.37;85.51;99928.38;109466;1254;71703;-69
2023/04/23 00:18:55;;;;;;;5.90;4.00;;;;;;;15.36;85.37;99924.69;109213;1254;62307;-69
2023/04/23 00:21:22;;;;;;;5.70;4.10;;;;;;;15.36;85.41;99925.34;109475;1254;59185;-69
2023/04/23 00:23:48;;;;;;;5.70;3.80;;;;;;;15.36;85.24;99924.27;109489;1254;73422;-69
2023/04/23 00:26:17;;;;;;;6.80;4.40;;;;;;;15.36;85.42;99924.27;109468;1253;69679;-69
2023/04/23 00:28:43;;;;;;;5.90;4.20;;;;;;;15.36;85.35;99920.26;109465;1253;71707;-69
2023/04/23 00:31:10;;;;;;;5.10;4.10;;;;;;;15.36;85.33;99916.04;109420;1254;58901;-69
2023/04/23 00:33:37;;;;;;;5.80;3.90;;;;;;;15.37;85.44;99916.86;109484;1254;59402;-69
2023/04/23 00:36:04;;;;;;;6.00;4.30;;;;;;;15.38;85.44;99919.56;109426;1253;73525;-69
2023/04/23 00:38:30;;;;;;;6.70;4.20;;;;;;;15.39;85.41;99916.23;109456;1254;70156;-70
2023/04/23 00:40:57;;;;;;;5.80;3.90;;;;;;;15.40;85.49;99914.02;109404;1254;58308;-69
2023/04/23 00:43:24;;;;;;;5.20;4.20;;;;;;;15.41;85.36;99912.60;109380;1254;61760;-69
2023/04/23 00:45:50;;;;;;;5.70;3.70;;;;;;;15.42;85.34;99913.76;109299;1253;59025;-69
2023/04/23 00:48:17;;;;;;;5.00;3.90;;;;;;;15.44;85.39;99907.77;109448;1254;73564;-69
2023/04/23 00:50:45;;;;;;;6.60;3.80;;;;;;;15.43;85.22;99907.53;109327;1254;69091;-69
2023/04/23 00:53:11;;;;;;;6.20;3.80;;;;;;;15.40;85.39;99907.70;109462;1254;70331;-69
2023/04/23 00:55:39;;;;;;;5.60;3.70;;;;;;;15.35;85.39;99905.54;109390;1256;61967;-69
2023/04/23 00:58:05;;;;;;;4.80;3.90;;;;;;;15.29;86.34;99907.47;109432;1254;60397;-69
2023/04/23 01:00:40;;;;;;;5.20;3.90;;;;;;;15.21;86.45;99905.10;109285;1254;73341;-69
2023/04/23 01:03:06;;;;;;;5.30;3.60;;;;;;;15.15;86.81;99900.88;109435;1253;70890;-70
2023/04/23 01:05:33;;;;;;;6.50;3.80;;;;;;;15.09;87.22;99899.16;109431;1254;72563;-69
2023/04/23 01:08:00;;;;;;;6.40;4.10;;;;;;;15.03;87.78;99895.85;109205;1254;60769;-69
2023/04/23 01:10:27;;;;;;;7.10;4.40;;;;;;;14.99;88.21;99899.74;109444;1256;58896;-69
2023/04/23 01:12:54;;;;;;;5.60;4.10;;;;;;;14.94;88.65;99897.77;109234;1253;74374;-69
2023/04/23 01:15:21;;;;;;;6.40;4.10;;;;;;;14.88;89.45;99894.23;109421;1252;71225;-70
2023/04/23 01:17:47;;;;;;;6.00;4.30;;;;;;;14.84;89.35;99896.91;109338;1254;71181;-69
2023/04/23 01:20:15;;;;;;;6.70;4.20;;;;;;;14.81;89.64;99899.81;109363;1254;60782;-70
2023/04/23 01:22:41;;;;;;;5.60;4.20;;;;;;;14.79;90.09;99898.40;109184;1253;60053;-69
2023/04/23 01:25:09;;;;;;;5.90;4.40;;;;;;;14.76;90.37;99895.76;109478;1254;73402;-70
2023/04/23 01:27:36;;;;;;;9.30;4.60;;;;;;;14.74;90.57;99894.39;109377;1254;70036;-70
2023/04/23 01:30:04;;;;;;;7.10;4.60;;;;;;;14.71;90.79;99899.67;109395;1253;71245;-70
2023/04/23 01:32:31;;;;;;;6.20;4.40;;;;;;;14.69;91.04;99897.65;109173;1252;61120;-70
2023/04/23 01:34:59;;;;;;;5.90;4.30;;;;;;;14.69;91.02;99900.36;109476;1253;59215;-70
2023/04/23 01:37:27;;;;;;;6.60;4.30;;;;;;;14.68;91.17;99896.18;109449;1254;75227;-70
2023/04/23 01:39:55;;;;;;;6.00;4.20;;;;;;;14.67;91.39;99895.32;109302;1254;70875;-70
2023/04/23 01:42:22;;;;;;;7.70;4.70;;;;;;;14.65;91.77;99902.91;109441;1254;71191;-70
2023/04/23 01:44:49;;;;;;;7.70;4.60;;;;;;;14.60;92.63;99908.36;109330;1254;60655;-70
2023/04/23 01:47:17;;;;;;;6.70;6.00;;;;;;;14.48;93.63;99919.38;109425;1254;59598;-70
2023/04/23 01:49:43;;;;;;;7.30;6.50;;;;;;;14.29;93.68;99920.82;109424;1253;73418;-70
2023/04/23 01:52:10;;;;;;;8.20;7.30;;;;;;;14.11;94.24;99922.48;109478;1253;71523;-71
2023/04/23 01:54:37;;;;;;;10.20;8.80;;;;;;;13.88;95.23;99924.36;109422;1254;73541;-69
2023/04/23 01:57:04;;;;;;;9.10;8.20;;;;;;;13.73;95.81;99925.61;109381;1254;61709;-69
2023/04/23 01:59:31;;;;;;;10.40;9.30;;;;;;;13.57;96.96;99925.58;109440;1254;58965;-69
2023/04/23 02:01:58;;;;;;;11.10;9.60;;;;;;;13.43;97.50;99924.83;109315;1254;77018;-69
2023/04/23 02:04:25;;;;;;;10.80;9.70;;;;;;;13.30;98.56;99932.29;109419;1254;71973;-69
2023/04/23 02:06:52;;;;;;;12.50;11.20;;;;;;;13.19;99.20;99930.48;109186;1254;72746;-69
2023/04/23 02:09:18;;;;;;;13.30;11.70;;;;;;;13.10;99.83;99929.52;109393;1253;62364;-69
2023/04/23 02:11:45;;;;;;;14.40;12.50;;;;;;;13.02;99.90;99931.68;109161;1257;60362;-69
2023/04/23 02:14:12;;;;;;;13.90;11.60;;;;;;;12.96;100.00;99934.48;109477;1253;59024;-69
2023/04/23 02:16:39;;;;;;;15.20;12.00;;;;;;;12.91;100.00;99932.16;109424;1254;70131;-69
2023/04/23 02:19:05;;;;;;;15.50;13.30;;;;;;;12.86;100.00;99931.69;109377;1252;72466;-69
2023/04/23 02:21:32;;;;;;;14.60;12.60;;;;;;;12.83;100.00;99933.48;109217;1252;60117;-69
2023/04/23 02:23:59;;;;;;;16.10;13.00;;;;;;;12.80;100.00;99938.89;109246;1254;59431;-69
2023/04/23 02:26:26;;;;;;;15.60;12.80;;;;;;;12.72;100.00;99941.25;109455;1254;75117;-69
2023/04/23 02:28:52;;;;;;;15.40;13.50;;;;;;;12.70;100.00;99938.83;109341;1252;70051;-69
2023/04/23 02:31:19;;;;;;;16.40;13.70;;;;;;;12.65;100.00;99937.74;109265;1254;71772;-69
2023/04/23 02:33:46;;;;;;;15.00;13.10;;;;;;;12.60;100.00;99937.67;109093;1253;287220;-69
2023/04/23 02:36:13;;;;;;;16.80;13.60;;;;;;;12.57;100.00;99939.02;109419;1253;59160;-69
2023/04/23 02:38:41;;;;;;;15.70;13.10;;;;;;;12.53;99.99;99952.48;109445;1253;72457;-69
2023/04/23 02:41:08;;;;;;;17.10;13.50;;;;;;;12.45;99.71;99953.55;109363;1254;71238;-69
2023/04/23 02:43:34;;;;;;;17.40;13.90;;;;;;;12.40;99.97;99959.94;109214;1253;72677;-69
2023/04/23 02:46:07;;;;;;;19.00;15.20;;;;;;;12.34;100.00;99961.79;109322;1253;62065;-69
2023/04/23 02:48:39;;;;;;;19.10;15.60;;;;;;;12.29;100.00;99959.25;109402;1253;60366;-69
2023/04/23 02:51:07;;;;;;;19.80;15.60;;;;;;;12.26;99.98;99959.49;109423;1253;74646;-69
2023/04/23 02:53:34;;;;;;;19.90;15.50;;;;;;;12.22;100.00;99959.25;109246;1252;70288;-69
2023/04/23 02:56:01;;;;;;;20.00;15.20;;;;;;;12.19;100.00;99964.56;109162;1253;71254;-69
2023/04/23 02:58:28;;;;;;;22.00;17.40;;;;;;;12.15;99.78;99963.52;109353;1253;61209;-69
2023/04/23 03:00:55;;;;;;;20.10;16.40;;;;;;;12.13;99.62;99962.47;109444;1253;59164;-69
2023/04/23 03:03:25;;;;;;;21.00;16.00;;;;;;;12.10;99.76;99958.09;109258;1253;75781;-70
2023/04/23 03:05:53;;;;;;;22.60;17.20;;;;;;;12.05;99.90;99955.02;109294;1254;68901;-69
2023/04/23 03:08:20;;;;;;;23.30;18.00;;;;;;;12.00;99.94;99957.79;109097;1254;71015;-69
2023/04/23 03:10:47;;;;;;;22.90;17.70;;;;;;;11.98;99.90;99959.09;109268;1254;60773;-69
2023/04/23 03:13:14;;;;;;;21.80;17.60;;;;;;;11.94;99.96;99954.52;109305;1253;58881;-69
2023/04/23 03:15:41;;;;;;;23.60;17.40;;;;;;;11.92;100.00;99957.98;109256;1254;74525;-69
2023/04/23 03:18:08;;;;;;;22.60;17.80;;;;;;;11.89;100.00;99964.03;109181;1254;71182;-69
2023/04/23 03:20:35;;;;;;;23.90;18.30;;;;;;;11.87;100.00;99963.91;109192;1254;72455;-69
2023/04/23 03:23:02;;;;;;;26.10;18.80;;;;;;;11.84;100.00;99963.65;109449;1253;63377;-69
2023/04/23 03:25:29;;;;;;;26.60;20.20;;;;;;;11.83;100.00;99967.73;109312;1253;59003;-69
2023/04/23 03:27:56;;;;;;;23.80;18.00;;;;;;;11.80;100.00;99971.50;109443;1254;73707;-68
2023/04/23 03:30:22;;;;;;;25.50;19.80;;;;;;;11.78;100.00;99969.62;109170;1253;70111;-69
2023/04/23 03:32:49;;;;;;;23.50;17.70;;;;;;;11.77;100.00;99969.33;109437;1253;71652;-69
2023/04/23 03:35:16;;;;;;;25.90;19.80;;;;;;;11.77;100.00;99971.05;109395;1252;62075;-69
2023/04/23 03:37:43;;;;;;;24.20;18.90;;;;;;;11.76;100.00;99970.22;109407;1253;58894;-69
2023/04/23 03:40:09;;;;;;;27.40;20.00;;;;;;;11.75;100.00;99972.19;109286;1254;74495;-68
2023/04/23 03:42:36;;;;;;;25.20;19.60;;;;;;;11.74;100.00;99976.35;109368;1252;72405;-68
2023/04/23 03:45:03;;;;;;;25.90;19.70;;;;;;;11.74;100.00;99975.65;109395;1254;71094;-68
2023/04/23 03:47:30;;;;;;;26.10;20.00;;;;;;;11.73;100.00;99977.65;109187;1253;61901;-69
2023/04/23 03:49:57;;;;;;;28.30;21.90;;;;;;;11.74;100.00;99971.52;109144;1254;59033;-69
2023/04/23 03:52:24;;;;;;;27.80;20.40;;;;;;;11.76;100.00;99972.14;109334;1254;73150;-69
2023/04/23 03:54:50;;;;;;;26.00;19.80;;;;;;;11.77;100.00;99977.17;109148;1254;70943;-68
2023/04/23 03:57:17;;;;;;;24.90;18.30;;;;;;;11.77;100.00;99976.19;109183;1253;72406;-69
2023/04/23 03:59:44;;;;;;;26.80;20.20;;;;;;;11.72;100.00;99974.79;109273;1253;60444;-69
2023/04/23 04:02:10;;;;;;;27.80;21.10;;;;;;;11.72;100.00;99979.04;109377;1253;59493;-69
2023/04/23 04:04:37;;;;;;;26.50;20.70;;;;;;;11.70;100.00;99985.00;109470;1253;73908;-69
2023/04/23 04:07:06;;;;;;;28.40;21.50;;;;;;;11.69;100.00;99983.03;109323;1254;70140;-69
2023/04/23 04:09:33;;;;;;;25.20;20.30;;;;;;;11.69;100.00;99986.26;109272;1253;71299;-69
2023/04/23 04:11:59;;;;;;;24.10;18.50;;;;;;;11.67;100.00;99987.77;109446;1253;60286;-69
2023/04/23 04:14:26;;;;;;;25.50;20.20;;;;;;;11.66;100.00;99987.52;109222;1255;59044;-69
2023/04/23 04:16:53;;;;;;;28.30;21.80;;;;;;;11.66;100.00;99986.61;109392;1252;74505;-69
2023/04/23 04:19:20;;;;;;;25.90;20.30;;;;;;;11.67;100.00;99991.12;109304;1253;70572;-69
2023/04/23 04:21:46;;;;;;;28.20;22.50;;;;;;;11.68;100.00;99993.61;109462;1253;58978;-69
2023/04/23 04:24:13;;;;;;;27.10;21.80;;;;;;;11.67;100.00;99995.65;109479;1254;60469;-69
2023/04/23 04:26:40;;;;;;;26.20;21.30;;;;;;;11.68;100.00;99994.55;109321;1253;60700;-69
2023/04/23 04:29:09;;;;;;;28.90;23.10;;;;;;;11.65;100.00;99997.32;109416;1253;74068;-69
2023/04/23 04:31:36;;;;;;;26.60;21.20;;;;;;;11.63;100.00;100003.66;109474;1254;69733;-69
2023/04/23 04:34:03;;;;;;;31.60;23.30;;;;;;;11.61;100.00;100005.16;109467;1253;71116;-69
2023/04/23 04:36:30;;;;;;;28.60;21.60;;;;;;;11.59;100.00;100009.29;109240;1254;60854;-68
2023/04/23 04:38:57;;;;;;;30.40;23.10;;;;;;;11.58;100.00;100012.06;109294;1254;59310;-68
2023/04/23 04:41:24;;;;;;;30.40;21.80;;;;;;;11.57;100.00;100014.14;109481;1254;74673;-68
2023/04/23 04:43:51;;;;;;;28.40;20.70;;;;;;;11.54;100.00;100013.55;109449;1254;69288;-68
2023/04/23 04:46:20;;;;;;;32.50;23.40;;;;;;;11.55;100.00;100010.15;109330;1253;72622;-68
2023/04/23 04:48:47;;;;;;;28.90;21.80;;;;;;;11.58;100.00;100012.77;109481;1253;60851;-68
2023/04/23 04:51:14;;;;;;;30.20;23.10;;;;;;;11.59;100.00;100013.23;109410;1252;58988;-69
2023/04/23 04:53:41;;;;;;;30.60;23.20;;;;;;;11.58;100.00;100021.58;109352;1254;73456;-68
2023/04/23 04:56:08;;;;;;;30.70;23.10;;;;;;;11.58;100.00;100021.90;109448;1254;69469;-68
2023/04/23 04:58:35;;;;;;;29.70;22.40;;;;;;;11.55;100.00;100030.05;109331;1254;71683;-68
2023/04/23 05:01:01;;;;;;;30.90;23.20;;;;;;;11.53;99.96;100024.95;109428;1253;60435;-68
2023/04/23 05:03:28;;;;;;;30.50;23.50;;;;;;;11.54;99.90;100026.02;109379;1252;58994;-70
2023/04/23 05:05:55;;;;;;;30.10;22.00;;;;;;;11.54;99.66;100031.70;109331;1253;74490;-68
2023/04/23 05:08:22;;;;;;;30.80;22.60;;;;;;;11.54;98.93;100033.16;109511;1253;69363;-68
2023/04/23 05:10:49;;;;;;;29.50;21.40;;;;;;;11.54;98.74;100035.61;109429;1252;71204;-68
2023/04/23 05:13:16;;;;;;;29.60;21.20;;;;;;;11.51;97.86;100042.10;109430;1254;61555;-68
2023/04/23 05:15:42;;;;;;;28.40;20.70;;;;;;;11.45;97.37;100049.39;109511;1253;60190;-68
2023/04/23 05:18:10;;;;;;;30.70;21.90;;;;;;;11.41;97.29;100050.75;109360;1253;74716;-68
2023/04/23 05:20:37;;;;;;;29.60;21.80;;;;;;;11.35;96.89;100053.76;109481;1253;69610;-68
2023/04/23 05:23:03;;;;;;;29.60;21.80;;;;;;;11.33;97.06;100046.05;109546;1252;72720;-68
2023/04/23 05:25:31;;;;;;;31.00;22.50;;;;;;;11.34;97.52;100043.28;109488;1252;60242;-68
2023/04/23 05:27:57;;;;;;;28.30;21.20;;;;;;;11.32;97.31;100042.33;109440;1252;58877;-68
2023/04/23 05:30:24;;;;;;;28.80;20.80;;;;;;;11.24;96.81;100041.55;109010;1254;73428;-68
2023/04/23 05:32:51;;;;;;;30.60;22.50;;;;;;;11.18;96.36;100047.98;109465;1252;70051;-68
2023/04/23 05:35:18;;;;;;;29.50;21.90;;;;;;;11.17;96.33;100047.83;109395;1252;74264;-69
2023/04/23 05:37:45;;;;;;;30.30;22.60;;;;;;;11.09;95.99;100048.42;109266;1252;61849;-69
2023/04/23 05:40:12;;;;;;;28.60;20.50;;;;;;;11.11;96.04;100048.52;109316;1252;59694;-69
2023/04/23 05:42:38;;;;;;;30.90;22.40;;;;;;;11.07;95.83;100052.76;109519;1253;73749;-69
2023/04/23 05:45:05;;;;;;;29.70;22.00;;;;;;;11.08;95.73;100055.53;109443;1253;58983;-69
2023/04/23 05:47:34;;;;;;;31.50;22.70;;;;;;;11.04;95.23;100046.56;109413;1253;71627;-69
2023/04/23 05:50:01;;;;;;;28.80;21.40;;;;;;;11.03;95.24;100043.70;109380;1253;60780;-68
2023/04/23 05:52:32;;;;;;;32.30;23.30;;;;;;;11.05;95.41;100050.58;109415;1253;60611;-70
2023/04/23 05:54:59;;;;;;;31.80;22.40;;;;;;;11.07;95.17;100053.08;109476;1253;73437;-69
2023/04/23 05:57:25;;;;;;;32.50;22.10;;;;;;;11.12;95.00;100058.99;109335;1253;70118;-69
2023/04/23 05:59:52;;;;;;;31.10;22.40;;;;;;;11.13;94.85;100060.64;109478;1256;70140;-69
2023/04/23 06:02:18;;;;;;;28.00;20.90;;;;;;;11.13;94.66;100064.19;109438;1252;59086;-69
2023/04/23 06:04:47;;;;;;;28.30;21.30;;;;;;;11.10;94.08;100066.83;109437;1253;59403;-69
2023/04/23 06:07:15;;;;;;;29.30;22.30;;;;;;;11.07;94.20;100071.66;109469;1253;73457;-69
2023/04/23 06:09:42;;;;;;;29.20;21.30;;;;;;;11.07;94.07;100071.65;109267;1254;70907;-69
2023/04/23 06:12:09;;;;;;;29.20;20.90;;;;;;;11.06;94.17;100075.41;109463;1253;72380;-69
2023/04/23 06:14:36;;;;;;;28.90;21.40;;;;;;;11.03;94.29;100078.73;109280;1254;60604;-69
2023/04/23 06:17:03;;;;;;;30.20;22.00;;;;;;;11.00;94.32;100080.63;109286;1253;59332;-69
2023/04/23 06:19:29;;;;;;;29.70;22.20;;;;;;;10.96;94.01;100079.17;109463;1253;73502;-68
2023/04/23 06:21:56;;;;;;;30.40;22.50;;;;;;;10.95;93.87;100077.77;109402;1253;69835;-70
2023/04/23 06:24:23;;;;;;;33.50;24.50;;;;;;;10.94;94.16;100079.69;109335;1253;73083;-69
2023/04/23 06:26:49;;;;;;;30.70;22.60;;;;;;;10.97;94.02;100077.98;109483;1253;61546;-69
2023/04/23 06:29:16;;;;;;;32.50;22.70;;;;;;;10.99;93.86;100080.09;109397;1253;61412;-69
2023/04/23 06:31:43;;;;;;;32.60;23.40;;;;;;;11.06;93.91;100073.65;109463;1253;73440;-69
2023/04/23 06:34:09;;;;;;;31.20;23.30;;;;;;;11.14;93.67;100075.09;109504;1252;70446;-69
2023/04/23 06:36:36;;;;;;;32.30;23.40;;;;;;;11.25;93.79;100074.92;109393;1253;72892;-69
2023/04/23 06:39:02;;;;;;;29.90;22.70;;;;;;;11.34;93.44;100072.13;109441;1253;59085;-69
2023/04/23 06:41:29;;;;;;;29.60;22.10;;;;;;;11.40;93.46;100073.55;109404;1253;61635;-69
2023/04/23 06:43:56;;;;;;;31.90;23.20;;;;;;;11.38;92.68;100067.61;109467;1253;73119;-69
2023/04/23 06:46:22;;;;;;;31.90;23.60;;;;;;;11.40;92.90;100067.87;109456;1253;70380;-70
2023/04/23 06:48:49;;;;;;;30.60;23.20;;;;;;;11.43;93.18;100069.45;109411;1253;72411;-70
2023/04/23 06:51:15;;;;;;;30.60;22.90;;;;;;;11.52;93.23;100065.68;109496;1253;60612;-70
2023/04/23 06:53:42;;;;;;;31.30;22.80;;;;;;;11.61;92.96;100073.45;109463;1253;58988;-70
2023/04/23 06:56:08;;;;;;;30.90;23.00;;;;;;;11.71;92.80;100072.33;109437;1253;59007;-71
2023/04/23 06:58:35;;;;;;;28.50;21.50;;;;;;;11.80;92.29;100069.73;109368;1253;71047;-70
2023/04/23 07:01:06;;;;;;;29.90;22.60;;;;;;;11.90;92.23;100065.90;109416;1252;71296;-69
2023/04/23 07:03:33;;;;;;;30.30;22.60;;;;;;;12.00;91.42;100062.35;109437;1252;60565;-71
2023/04/23 07:06:00;;;;;;;30.40;22.80;;;;;;;12.13;91.30;100062.97;109350;1254;60904;-70
2023/04/23 07:08:26;;;;;;;27.60;21.80;;;;;;;12.24;90.55;100064.27;109413;1252;73948;-70
2023/04/23 07:10:53;;;;;;;28.40;22.10;;;;;;;12.33;89.46;100060.44;109284;1253;71788;-70
2023/04/23 07:13:20;;;;;;;28.70;21.60;;;;;;;12.36;88.82;100060.20;109352;1253;72694;-70
2023/04/23 07:15:48;;;;;;;29.40;22.80;;;;;;;12.46;88.94;100065.70;109299;1253;59802;-69
2023/04/23 07:18:15;;;;;;;27.50;21.70;;;;;;;12.58;89.03;100056.91;109523;1253;58929;-69
2023/04/23 07:20:42;;;;;;;28.50;22.30;;;;;;;12.69;88.18;100054.50;109138;1253;74705;-70
2023/04/23 07:23:09;;;;;;;28.40;22.30;;;;;;;12.83;87.81;100054.01;109413;1254;69915;-69
2023/04/23 07:25:36;;;;;;;28.60;22.40;;;;;;;12.94;87.31;100053.27;109442;1253;71503;-69
2023/04/23 07:28:03;;;;;;;28.80;22.80;;;;;;;13.05;87.07;100047.72;109371;1253;62024;-69
2023/04/23 07:30:30;;;;;;;27.60;21.10;;;;;;;13.19;87.23;100037.45;109434;1253;60014;-69
2023/04/23 07:32:56;;;;;;;24.70;20.20;;;;;;;13.30;86.27;100035.83;109458;1253;73538;-69
2023/04/23 07:35:23;;;;;;;26.40;21.30;;;;;;;13.37;85.28;100039.98;109442;1253;70877;-69
2023/04/23 07:37:52;;;;;;;26.40;20.80;;;;;;;13.32;83.79;100043.56;109451;1253;71479;-69
2023/04/23 07:40:21;;;;;;;29.30;22.50;;;;;;;13.24;83.53;100044.12;109414;1253;60540;-69
2023/04/23 07:42:49;;;;;;;28.90;21.50;;;;;;;13.19;84.19;100037.16;109440;1253;60046;-75
2023/04/23 07:45:16;;;;;;;28.60;22.90;;;;;;;13.21;84.47;100038.27;109469;1253;74804;-75
2023/04/23 07:47:44;;;;;;;28.70;22.60;;;;;;;13.32;85.09;100042.86;109310;1253;70898;-76
2023/04/23 07:50:13;;;;;;;28.90;22.10;;;;;;;13.46;84.78;100046.69;109285;1254;73245;-76
2023/04/23 07:52:40;;;;;;;32.70;25.00;;;;;;;13.60;84.61;100048.92;109427;1253;60656;-75
2023/04/23 07:55:07;;;;;;;31.30;23.60;;;;;;;13.71;83.62;100047.83;109307;1254;59392;-74
2023/04/23 07:57:34;;;;;;;27.50;22.60;;;;;;;13.80;83.25;100041.10;109441;1253;74433;-73
2023/04/23 08:00:01;;;;;;;30.10;23.30;;;;;;;13.91;83.04;100045.42;109496;1252;70649;-73
2023/04/23 08:02:28;;;;;;;27.90;22.70;;;;;;;14.04;83.18;100044.02;109411;1252;72363;-73
2023/04/23 08:04:55;;;;;;;27.20;22.50;;;;;;;14.14;82.29;100039.15;109291;1253;60745;-73
2023/04/23 08:07:21;;;;;;;25.00;20.00;;;;;;;14.14;80.67;100031.64;109456;1253;60334;-73
2023/04/23 08:09:48;;;;;;;26.00;21.40;;;;;;;14.21;81.60;100026.52;109432;1253;59322;-72
2023/04/23 08:12:16;;;;;;;25.00;20.40;;;;;;;14.34;81.55;100015.88;109437;1253;70715;-73
2023/04/23 08:14:43;;;;;;;24.50;20.00;;;;;;;14.45;81.14;100011.45;109444;1253;72705;-73
2023/04/23 08:17:10;;;;;;;25.00;20.30;;;;;;;14.58;80.46;100010.27;109258;1254;60772;-73
2023/04/23 08:19:37;;;;;;;23.40;18.60;;;;;;;14.71;79.30;100014.77;109362;1254;59045;-73
2023/04/23 08:22:04;;;;;;;21.50;16.40;;;;;;;14.74;75.44;100018.02;109495;1253;74837;-73
2023/04/23 08:24:31;;;;;;;19.40;16.30;;;;;;;14.73;73.68;100014.12;109214;1254;70899;-73
2023/04/23 08:26:57;;;;;;;21.50;17.30;;;;;;;14.74;73.31;100014.77;109472;1252;72893;-73
2023/04/23 08:29:24;;;;;;;20.00;17.20;;;;;;;14.80;73.93;100018.25;109291;1254;59442;-73
2023/04/23 08:31:51;;;;;;;21.40;17.30;;;;;;;14.90;74.49;100018.59;109155;1253;60326;-73
2023/04/23 08:34:18;;;;;;;21.00;17.30;;;;;;;15.01;74.15;100012.62;109330;1253;74844;-73
2023/04/23 08:36:45;;;;;;;21.70;17.60;;;;;;;15.12;72.83;100016.95;109431;1252;59097;-73
2023/04/23 08:39:12;;;;;;;20.10;16.10;;;;;;;15.24;73.37;100018.05;109404;1253;72662;-73
2023/04/23 08:41:42;;;;;;;16.50;12.80;;;;;;;15.28;70.42;100014.53;109340;1252;62324;-72
2023/04/23 08:44:24;;;;;;;18.20;14.00;;;;;;;15.21;65.94;100020.64;109326;1252;60499;-74
2023/04/23 08:46:53;;;;;;;18.50;13.60;;;;;;;15.28;67.75;100013.14;109320;1253;74723;-74
2023/04/23 08:49:20;;;;;;;18.50;15.30;;;;;;;15.40;67.89;100020.80;109416;1253;71175;-75
2023/04/23 08:51:55;;;;;;;19.30;15.60;;;;;;;15.45;67.32;100025.84;109242;1253;72669;-74
2023/04/23 08:54:26;;;;;;;19.40;15.10;;;;;;;15.53;67.87;100022.27;109077;1253;61046;-74
2023/04/23 08:56:57;;;;;;;16.20;12.60;;;;;;;15.52;66.75;100021.80;109299;1252;59007;-74
2023/04/23 08:59:30;;;;;;;17.90;14.60;;;;;;;15.48;65.84;100017.95;109254;1252;75898;-75
2023/04/23 09:01:59;;;;;;;17.80;13.30;;;;;;;15.64;66.86;100020.20;109359;1253;70042;-74
2023/04/23 09:04:27;;;;;;;17.80;13.70;;;;;;;15.71;63.38;100006.78;109265;1253;71284;-74
2023/04/23 09:06:54;;;;;;;15.50;12.40;;;;;;;15.76;62.33;100006.66;109288;1253;58373;-74
2023/04/23 09:09:22;;;;;;;15.10;12.00;;;;;;;15.82;62.31;100009.34;109235;1253;59741;-74
2023/04/23 09:11:49;;;;;;;15.40;12.00;;;;;;;15.90;61.47;100011.48;109449;1252;74075;-74
2023/04/23 09:14:21;;;;;;;14.30;11.60;;;;;;;16.04;61.21;100006.77;109270;1252;70879;-74
2023/04/23 09:16:49;;;;;;;16.20;11.50;;;;;;;16.13;61.24;100006.56;109387;1253;72748;-74
2023/04/23 09:19:17;;;;;;;14.40;11.00;;;;;;;16.21;60.44;100002.50;109068;1254;59523;-74
2023/04/23 09:21:45;;;;;;;14.20;11.50;;;;;;;16.36;60.62;99995.14;109124;1254;59127;-74
2023/04/23 09:24:13;;;;;;;13.80;11.40;;;;;;;16.49;59.26;99994.11;109240;1254;72209;-73
2023/04/23 09:26:47;;;;;;;13.80;11.30;;;;;;;16.56;58.66;99990.16;109350;1254;70000;-74
2023/04/23 09:29:22;;;;;;;14.30;11.30;;;;;;;16.57;58.35;99993.77;109242;1253;71470;-74
2023/04/23 09:32:09;;;;;;;14.40;11.40;;;;;;;16.66;59.02;99992.45;109151;1253;59140;-74
2023/04/23 09:34:40;;;;;;;19.70;14.90;;;;;;;16.83;59.06;99986.64;109346;1253;60136;-74
2023/04/23 09:37:06;;;;;;;13.30;11.20;;;;;;;17.02;57.97;99984.02;109322;1252;73520;-74
2023/04/23 09:39:34;;;;;;;12.50;9.70;;;;;;;17.14;57.04;99982.08;109414;1253;69618;-74
2023/04/23 09:42:03;;;;;;;12.60;9.50;;;;;;;17.15;55.62;99981.44;109389;1253;72071;-74
2023/04/23 09:44:33;;;;;;;13.40;10.20;;;;;;;17.20;55.79;99980.86;109247;1253;59462;-74
2023/04/23 09:47:13;;;;;;;13.40;10.80;;;;;;;17.25;55.42;99978.23;109303;1252;59373;-74
2023/04/23 09:49:49;;;;;;;13.50;10.70;;;;;;;17.30;55.45;99976.23;109172;1254;72511;-74
2023/04/23 09:52:17;;;;;;;12.90;9.60;;;;;;;17.41;56.44;99975.65;109226;1253;69959;-74
2023/04/23 09:54:45;;;;;;;12.80;10.10;;;;;;;17.59;55.82;99971.98;109264;1253;72737;-74
2023/04/23 09:57:12;;;;;;;11.30;9.30;;;;;;;17.71;54.44;99973.02;109342;1253;58968;-74
2023/04/23 09:59:39;;;;;;;12.40;9.40;;;;;;;17.73;53.21;99973.45;109029;1253;60597;-74
2023/04/23 10:02:11;;;;;;;12.30;9.90;;;;;;;17.84;54.20;99976.61;109446;1253;72520;-74
2023/04/23 10:04:38;;;;;;;9.00;7.20;;;;;;;17.91;52.14;99974.33;109125;1254;70201;-74
2023/04/23 10:07:07;;;;;;;10.60;9.10;;;;;;;18.01;51.41;99974.60;109439;1253;71453;-74
2023/04/23 10:09:46;;;;;;;10.60;8.00;;;;;;;18.05;50.90;99975.45;109228;1254;59029;-74
2023/04/23 10:12:13;;;;;;;8.60;7.30;;;;;;;18.08;50.67;99972.48;109249;1253;60059;-74
2023/04/23 10:14:44;;;;;;;8.70;6.90;;;;;;;18.08;50.43;99965.43;109329;1252;74515;-74
2023/04/23 10:17:11;;;;;;;10.60;7.60;;;;;;;18.15;51.37;99959.55;109358;1252;70156;-72
2023/04/23 10:19:41;;;;;;;9.60;7.80;;;;;;;18.31;50.74;99957.88;109160;1253;72561;-74
2023/04/23 10:22:10;;;;;;;9.60;7.40;;;;;;;18.40;49.88;99951.09;109312;1253;61466;-74
2023/04/23 10:24:51;;;;;;;8.70;6.90;;;;;;;18.54;51.23;99944.27;109267;1253;60275;-74
2023/04/23 10:27:20;;;;;;;9.50;7.40;;;;;;;18.74;51.48;99942.15;109433;1253;73104;-74
2023/04/23 10:29:50;;;;;;;8.40;7.10;;;;;;;18.84;49.34;99946.45;109323;1253;69691;-74
2023/04/23 10:32:19;;;;;;;9.40;7.60;;;;;;;18.89;49.86;99940.16;109249;1253;71631;-73
2023/04/23 10:34:49;;;;;;;8.60;7.40;;;;;;;19.00;49.13;99947.20;109351;1253;59313;-74
2023/04/23 10:37:18;;;;;;;8.60;7.40;;;;;;;19.07;49.29;99945.58;109193;1253;60651;-74
2023/04/23 10:39:49;;;;;;;10.20;7.30;;;;;;;19.21;49.78;99940.84;109479;1252;73800;-74
2023/04/23 10:42:16;;;;;;;8.10;6.80;;;;;;;19.29;49.50;99940.36;109417;1253;70102;-73
2023/04/23 10:44:43;;;;;;;8.90;6.80;;;;;;;19.40;49.15;99940.47;109075;1253;71184;-74
2023/04/23 10:47:26;;;;;;;8.20;6.80;;;;;;;19.55;47.98;99929.72;109415;1253;60674;-74
2023/04/23 10:49:53;;;;;;;8.30;7.00;;;;;;;19.68;48.29;99930.55;109254;1256;60371;-74
2023/04/23 10:52:20;;;;;;;8.30;6.60;;;;;;;19.94;49.19;99938.95;109328;1254;74671;-74
2023/04/23 10:54:58;;;;;;;7.80;6.60;;;;;;;20.16;46.61;99942.27;109424;1253;72425;-74
2023/04/23 10:57:25;;;;;;;7.50;6.50;;;;;;;20.20;47.00;99938.86;109240;1254;72573;-74
2023/04/23 10:59:55;;;;;;;7.20;5.80;;;;;;;20.31;45.10;99936.18;109415;1253;59119;-74
2023/04/23 11:02:23;;;;;;;8.10;5.60;;;;;;;20.45;45.71;99931.29;109349;1253;59008;-73
2023/04/23 11:04:57;;;;;;;7.70;6.40;;;;;;;20.67;45.07;99930.54;109139;1253;74064;-73
2023/04/23 11:07:34;;;;;;;7.50;5.60;;;;;;;20.89;44.92;99930.43;109379;1253;70791;-73
2023/04/23 11:10:19;;;;;;;7.30;6.20;;;;;;;20.92;42.56;99933.31;109389;1253;72693;-73
2023/04/23 11:12:45;;;;;;;7.10;6.20;;;;;;;20.78;41.81;99931.30;109318;1252;60097;-73